createdAt,value
2019-05-22T00:01:38.453Z,14.53
2019-05-22T00:04:24.708Z,14.57
2019-05-22T00:07:07.123Z,14.60
2019-05-22T00:09:39.134Z,14.60
2019-05-22T00:12:11.996Z,14.59
2019-05-22T00:14:40.224Z,14.59
2019-05-22T00:17:09.738Z,14.57
2019-05-22T00:19:37.660Z,14.52
2019-05-22T00:22:10.586Z,14.58
2019-05-22T00:24:43.411Z,14.55
2019-05-22T00:27:11.793Z,14.55
2019-05-22T00:29:40.687Z,14.48
2019-05-22T00:32:09.464Z,14.41
2019-05-22T00:34:37.121Z,14.47
2019-05-22T00:37:05.398Z,14.51
2019-05-22T00:39:33.552Z,14.44
2019-05-22T00:42:02.385Z,14.45
2019-05-22T00:44:29.842Z,14.27
2019-05-22T00:46:59.934Z,14.40
2019-05-22T00:49:29.433Z,14.41
2019-05-22T00:52:18.950Z,14.43
2019-05-22T00:54:57.542Z,14.45
2019-05-22T00:57:46.813Z,14.37
2019-05-22T01:00:21.389Z,14.34
2019-05-22T01:02:51.524Z,14.36
2019-05-22T01:05:21.157Z,14.37
2019-05-22T01:07:50.394Z,14.32
2019-05-22T01:10:17.921Z,14.41
2019-05-22T01:12:49.717Z,14.39
2019-05-22T01:15:20.766Z,14.44
2019-05-22T01:17:49.480Z,14.42
2019-05-22T01:20:21.489Z,14.34
2019-05-22T01:22:49.043Z,14.41
2019-05-22T01:25:21.957Z,14.42
2019-05-22T01:27:49.583Z,14.42
2019-05-22T01:30:27.568Z,14.28
2019-05-22T01:32:57.763Z,14.41
2019-05-22T01:35:32.648Z,14.29
2019-05-22T01:38:01.413Z,14.34
2019-05-22T01:40:41.950Z,14.39
2019-05-22T01:43:11.123Z,14.41
2019-05-22T01:45:39.207Z,14.35
2019-05-22T01:48:14.556Z,14.38
2019-05-22T01:50:48.121Z,14.23
2019-05-22T01:53:23.294Z,14.28
2019-05-22T01:55:56.488Z,14.25
2019-05-22T01:58:24.080Z,14.20
2019-05-22T02:00:54.569Z,14.28
2019-05-22T02:03:22.621Z,14.21
2019-05-22T02:05:50.884Z,14.13
2019-05-22T02:08:19.910Z,14.19
2019-05-22T02:10:49.726Z,14.22
2019-05-22T02:13:30.322Z,14.28
2019-05-22T02:15:59.714Z,14.27
2019-05-22T02:18:29.290Z,14.23
2019-05-22T02:20:57.700Z,14.24
2019-05-22T02:23:25.710Z,14.28
2019-05-22T02:25:53.113Z,14.29
2019-05-22T02:28:21.147Z,14.27
2019-05-22T02:30:48.751Z,14.29
2019-05-22T02:33:20.550Z,14.27
2019-05-22T02:35:48.456Z,14.11
2019-05-22T02:38:17.256Z,14.16
2019-05-22T02:40:49.109Z,14.20
2019-05-22T02:43:17.859Z,14.22
2019-05-22T02:45:45.877Z,14.25
2019-05-22T02:48:15.102Z,14.22
2019-05-22T02:50:42.855Z,14.20
2019-05-22T02:53:12.964Z,14.24
2019-05-22T02:55:41.140Z,14.21
2019-05-22T02:58:10.332Z,14.24
2019-05-22T03:00:56.325Z,14.23
2019-05-22T03:03:26.018Z,14.25
2019-05-22T03:05:54.141Z,14.26
2019-05-22T03:08:24.451Z,14.23
2019-05-22T03:10:51.932Z,14.21
2019-05-22T03:13:23.678Z,14.21
2019-05-22T03:15:54.144Z,14.24
2019-05-22T03:18:21.302Z,14.25
2019-05-22T03:20:49.168Z,14.25
2019-05-22T03:23:39.295Z,14.25
2019-05-22T03:26:08.818Z,14.20
2019-05-22T03:28:37.948Z,14.17
2019-05-22T03:31:06.730Z,14.08
2019-05-22T03:33:34.926Z,14.15
2019-05-22T03:36:10.492Z,14.18
2019-05-22T03:38:40.273Z,14.22
2019-05-22T03:41:10.221Z,14.18
2019-05-22T03:43:40.387Z,14.18
2019-05-22T03:46:30.998Z,14.18
2019-05-22T03:48:59.890Z,14.15
2019-05-22T03:51:27.865Z,14.14
2019-05-22T03:53:56.454Z,14.14
2019-05-22T03:56:25.265Z,14.14
2019-05-22T03:58:52.849Z,14.14
2019-05-22T04:01:21.644Z,14.10
2019-05-22T04:03:48.992Z,14.12
2019-05-22T04:06:18.983Z,14.15
2019-05-22T04:08:49.848Z,14.16
2019-05-22T04:11:18.210Z,14.14
2019-05-22T04:13:46.472Z,14.16
2019-05-22T04:16:15.696Z,14.13
2019-05-22T04:18:43.362Z,14.16
2019-05-22T04:21:10.759Z,14.14
2019-05-22T04:23:44.235Z,14.16
2019-05-22T04:26:13.035Z,14.18
2019-05-22T04:28:50.219Z,14.16
2019-05-22T04:31:29.531Z,14.18
2019-05-22T04:33:57.491Z,14.24
2019-05-22T04:36:26.374Z,14.26
2019-05-22T04:38:54.180Z,14.19
2019-05-22T04:41:22.316Z,14.19
2019-05-22T04:43:54.486Z,14.24
2019-05-22T04:46:22.553Z,14.29
2019-05-22T04:48:50.413Z,14.33
2019-05-22T04:51:28.182Z,14.29
2019-05-22T04:53:57.240Z,14.30
2019-05-22T04:56:26.302Z,14.30
2019-05-22T04:58:54.692Z,14.32
2019-05-22T05:01:23.878Z,14.40
2019-05-22T05:03:52.826Z,14.39
2019-05-22T05:06:23.305Z,14.42
2019-05-22T05:08:51.700Z,14.38
2019-05-22T05:11:20.623Z,14.38
2019-05-22T05:13:48.088Z,14.39
2019-05-22T05:16:15.768Z,14.35
2019-05-22T05:18:43.523Z,14.49
2019-05-22T05:21:10.924Z,14.56
2019-05-22T05:23:38.124Z,14.52
2019-05-22T05:26:06.062Z,14.51
2019-05-22T05:28:33.927Z,14.55
2019-05-22T05:31:10.160Z,14.59
2019-05-22T05:34:22.360Z,14.58
2019-05-22T05:36:51.459Z,14.56
2019-05-22T05:40:35.416Z,14.60
2019-05-22T05:43:06.071Z,14.59
2019-05-22T05:45:34.157Z,14.59
2019-05-22T05:48:06.537Z,14.40
2019-05-22T05:50:40.153Z,14.53
2019-05-22T05:53:08.672Z,14.54
2019-05-22T05:56:13.921Z,14.57
2019-05-22T05:58:43.166Z,14.61
2019-05-22T06:01:27.619Z,14.68
2019-05-22T06:03:57.835Z,14.73
2019-05-22T06:07:23.567Z,14.77
2019-05-22T06:10:49.818Z,14.86
2019-05-22T06:13:17.547Z,14.92
2019-05-22T06:16:44.340Z,15.10
2019-05-22T06:19:11.838Z,15.17
2019-05-22T06:21:43.697Z,15.15
2019-05-22T06:24:24.886Z,15.23
2019-05-22T06:27:15.959Z,15.26
2019-05-22T06:29:56.990Z,15.36
2019-05-22T06:33:16.455Z,15.39
2019-05-22T06:35:47.589Z,15.54
2019-05-22T06:38:56.726Z,15.60
2019-05-22T06:41:30.772Z,15.71
2019-05-22T06:44:37.345Z,15.79
2019-05-22T06:47:09.764Z,15.83
2019-05-22T06:49:46.232Z,15.83
2019-05-22T06:52:14.742Z,15.91
2019-05-22T06:54:43.447Z,15.91
2019-05-22T06:57:14.527Z,15.99
2019-05-22T06:59:44.230Z,16.18
2019-05-22T07:02:14.157Z,16.19
2019-05-22T07:04:42.653Z,16.16
2019-05-22T07:07:12.394Z,16.30
2019-05-22T07:09:41.305Z,16.61
2019-05-22T07:12:12.123Z,16.64
2019-05-22T07:15:27.694Z,16.90
2019-05-22T07:17:57.026Z,17.11
2019-05-22T07:20:27.747Z,17.47
2019-05-22T07:22:57.251Z,17.41
2019-05-22T07:25:27.351Z,17.76
2019-05-22T07:27:57.710Z,17.95
2019-05-22T07:30:25.701Z,18.06
2019-05-22T07:32:53.808Z,18.31
2019-05-22T07:35:22.475Z,18.30
2019-05-22T07:37:52.378Z,18.46
2019-05-22T07:40:20.490Z,18.46
2019-05-22T07:42:49.658Z,18.20
2019-05-22T07:45:19.269Z,18.49
2019-05-22T07:47:48.369Z,18.48
2019-05-22T07:50:18.123Z,18.46
2019-05-22T07:52:47.042Z,18.41
2019-05-22T07:55:17.158Z,18.20
2019-05-22T07:57:50.120Z,18.27
2019-05-22T08:00:19.940Z,18.13
2019-05-22T08:02:49.550Z,18.27
2019-05-22T08:05:20.746Z,18.25
2019-05-22T08:07:50.173Z,18.14
2019-05-22T08:10:23.104Z,18.12
2019-05-22T08:12:51.217Z,18.05
2019-05-22T08:15:27.213Z,17.84
2019-05-22T08:17:57.427Z,17.56
2019-05-22T08:20:25.608Z,17.59
2019-05-22T08:22:56.173Z,17.75
2019-05-22T08:25:31.729Z,17.91
2019-05-22T08:28:02.131Z,18.15
2019-05-22T08:30:31.267Z,18.29
2019-05-22T08:33:08.832Z,18.38
2019-05-22T08:35:40.974Z,18.52
2019-05-22T08:38:10.666Z,18.73
2019-05-22T08:40:46.648Z,18.90
2019-05-22T08:43:19.722Z,19.11
2019-05-22T08:46:06.809Z,19.27
2019-05-22T08:48:38.485Z,19.32
2019-05-22T08:51:11.043Z,19.59
2019-05-22T08:53:47.263Z,19.60
2019-05-22T08:56:14.314Z,19.72
2019-05-22T08:58:51.488Z,19.89
2019-05-22T09:01:24.101Z,19.92
2019-05-22T09:03:51.805Z,20.04
2019-05-22T09:06:21.691Z,20.15
2019-05-22T09:08:50.386Z,20.35
2019-05-22T09:11:23.133Z,20.46
2019-05-22T09:13:52.955Z,20.63
2019-05-22T09:16:22.032Z,20.88
2019-05-22T09:18:52.957Z,21.04
2019-05-22T09:21:27.983Z,21.35
2019-05-22T09:24:16.028Z,21.33
2019-05-22T09:26:45.481Z,21.73
2019-05-22T09:29:24.289Z,21.70
2019-05-22T09:31:55.283Z,21.87
2019-05-22T09:34:35.264Z,21.73
2019-05-22T09:37:03.307Z,21.33
2019-05-22T09:39:30.961Z,21.47
2019-05-22T09:41:58.561Z,21.59
2019-05-22T09:44:27.882Z,21.83
2019-05-22T09:46:55.649Z,21.82
2019-05-22T09:49:24.199Z,22.01
2019-05-22T09:51:51.958Z,21.72
2019-05-22T09:54:20.482Z,22.25
2019-05-22T09:56:50.795Z,22.02
2019-05-22T09:59:22.951Z,22.29
2019-05-22T10:01:50.527Z,22.42
2019-05-22T10:04:20.514Z,22.74
2019-05-22T10:06:48.306Z,23.04
2019-05-22T10:09:16.221Z,23.46
2019-05-22T10:11:48.017Z,23.66
2019-05-22T10:14:19.515Z,23.74
2019-05-22T10:16:49.198Z,23.91
2019-05-22T10:19:17.505Z,24.61
2019-05-22T10:21:48.024Z,24.64
2019-05-22T10:24:17.578Z,24.48
2019-05-22T10:26:53.601Z,25.00
2019-05-22T10:29:25.163Z,25.33
2019-05-22T10:31:57.835Z,25.38
2019-05-22T10:34:27.191Z,25.23
2019-05-22T10:36:55.828Z,25.22
2019-05-22T10:39:25.079Z,25.70
2019-05-22T10:41:52.694Z,25.54
2019-05-22T10:44:20.120Z,25.48
2019-05-22T10:46:47.696Z,25.31
2019-05-22T10:49:15.347Z,25.36
2019-05-22T10:51:43.585Z,25.32
2019-05-22T10:54:12.002Z,25.09
2019-05-22T10:56:42.897Z,24.76
2019-05-22T10:59:11.260Z,24.80
2019-05-22T11:01:38.685Z,24.63
2019-05-22T11:04:06.720Z,24.28
2019-05-22T11:06:34.373Z,24.27
2019-05-22T11:09:02.933Z,24.23
2019-05-22T11:11:30.705Z,24.11
2019-05-22T11:14:01.838Z,23.87
2019-05-22T11:16:28.518Z,23.51
2019-05-22T11:18:59.327Z,23.58
2019-05-22T11:21:26.943Z,23.76
2019-05-22T11:24:03.397Z,23.83
2019-05-22T11:26:39.650Z,23.69
2019-05-22T11:29:09.745Z,23.75
2019-05-22T11:31:39.535Z,24.03
2019-05-22T11:34:15.809Z,24.08
2019-05-22T11:36:45.987Z,23.93
2019-05-22T11:39:16.101Z,24.00
2019-05-22T11:41:44.440Z,24.25
2019-05-22T11:44:12.534Z,24.50
2019-05-22T11:46:40.028Z,24.45
2019-05-22T11:49:09.239Z,24.57
2019-05-22T11:51:42.680Z,24.78
2019-05-22T11:54:12.319Z,25.29
2019-05-22T11:56:39.666Z,25.58
2019-05-22T11:59:09.266Z,25.67
2019-05-22T12:01:37.705Z,25.89
2019-05-22T12:04:10.812Z,25.50
2019-05-22T12:06:41.244Z,25.43
2019-05-22T12:09:10.804Z,25.72
2019-05-22T12:11:43.255Z,25.90
2019-05-22T12:14:13.857Z,26.07
2019-05-22T12:16:42.814Z,26.42
2019-05-22T12:19:14.760Z,26.22
2019-05-22T12:21:45.159Z,26.00
2019-05-22T12:24:25.963Z,26.04
2019-05-22T12:26:42.766Z,25.35
2019-05-22T12:29:19.097Z,25.45
2019-05-22T12:31:47.138Z,25.50
2019-05-22T12:34:15.232Z,25.30
2019-05-22T12:36:51.048Z,25.22
2019-05-22T12:39:18.883Z,25.05
2019-05-22T12:41:50.371Z,25.15
2019-05-22T12:44:29.426Z,25.50
2019-05-22T12:46:57.161Z,25.59
2019-05-22T12:49:26.789Z,26.08
2019-05-22T12:52:05.973Z,26.01
2019-05-22T12:54:48.303Z,26.23
2019-05-22T12:57:18.134Z,26.26
2019-05-22T12:59:46.847Z,26.29
2019-05-22T13:02:16.474Z,26.60
2019-05-22T13:04:45.226Z,26.74
2019-05-22T13:07:13.633Z,26.75
2019-05-22T13:09:47.887Z,26.71
2019-05-22T13:12:16.396Z,26.30
2019-05-22T13:14:44.524Z,25.99
2019-05-22T13:17:14.849Z,26.05
2019-05-22T13:19:42.971Z,25.99
2019-05-22T13:22:15.670Z,25.50
2019-05-22T13:24:43.682Z,25.62
2019-05-22T13:27:14.727Z,25.41
2019-05-22T13:29:42.576Z,25.46
2019-05-22T13:32:13.313Z,25.18
2019-05-22T13:34:41.769Z,24.81
2019-05-22T13:37:10.531Z,24.96
2019-05-22T13:39:38.544Z,24.73
2019-05-22T13:42:07.225Z,24.77
2019-05-22T13:44:35.901Z,24.62
2019-05-22T13:47:04.465Z,24.35
2019-05-22T13:49:34.039Z,24.24
2019-05-22T13:52:02.605Z,24.49
2019-05-22T13:54:30.436Z,24.45
2019-05-22T13:56:58.310Z,24.51
2019-05-22T13:59:42.169Z,24.63
2019-05-22T14:02:13.609Z,24.85
2019-05-22T14:04:41.190Z,24.87
2019-05-22T14:07:09.846Z,24.91
2019-05-22T14:09:37.630Z,24.78
2019-05-22T14:12:06.701Z,24.55
2019-05-22T14:14:34.257Z,24.39
2019-05-22T14:17:07.100Z,23.69
2019-05-22T14:19:40.759Z,23.75
2019-05-22T14:22:08.517Z,23.47
2019-05-22T14:24:38.768Z,23.29
2019-05-22T14:27:06.147Z,23.38
2019-05-22T14:29:33.655Z,23.32
2019-05-22T14:32:03.509Z,23.13
2019-05-22T14:34:31.262Z,22.90
2019-05-22T14:37:03.361Z,22.78
2019-05-22T14:39:31.340Z,22.49
2019-05-22T14:42:03.203Z,22.54
2019-05-22T14:44:33.938Z,22.46
2019-05-22T14:47:13.188Z,22.39
2019-05-22T14:49:34.077Z,22.11
2019-05-22T14:52:02.438Z,22.23
2019-05-22T14:54:31.234Z,22.23
2019-05-22T14:57:00.039Z,22.33
2019-05-22T14:59:28.096Z,22.24
2019-05-22T15:01:56.823Z,22.06
2019-05-22T15:04:27.382Z,22.07
2019-05-22T15:06:57.613Z,22.19
2019-05-22T15:09:26.855Z,22.06
2019-05-22T15:11:57.493Z,21.84
2019-05-22T15:14:25.715Z,21.83
2019-05-22T15:16:54.108Z,21.67
2019-05-22T15:19:23.250Z,21.94
2019-05-22T15:21:59.790Z,21.83
2019-05-22T15:24:29.621Z,21.76
2019-05-22T15:26:58.807Z,21.53
2019-05-22T15:29:30.273Z,21.44
2019-05-22T15:32:01.438Z,21.41
2019-05-22T15:34:30.871Z,21.43
2019-05-22T15:36:58.916Z,21.13
2019-05-22T15:39:29.955Z,21.08
2019-05-22T15:42:03.114Z,21.27
2019-05-22T15:44:30.771Z,21.18
2019-05-22T15:46:58.694Z,20.87
2019-05-22T15:49:26.580Z,20.96
2019-05-22T15:51:54.586Z,21.09
2019-05-22T15:54:22.497Z,20.94
2019-05-22T15:56:53.981Z,20.82
2019-05-22T15:59:22.533Z,20.89
2019-05-22T16:01:51.948Z,20.91
2019-05-22T16:04:22.609Z,20.90
2019-05-22T16:06:51.505Z,20.95
2019-05-22T16:09:20.885Z,20.71
2019-05-22T16:11:52.550Z,20.65
2019-05-22T16:14:20.766Z,20.72
2019-05-22T16:16:50.519Z,20.68
2019-05-22T16:19:23.185Z,20.61
2019-05-22T16:22:01.469Z,20.60
2019-05-22T16:24:30.570Z,20.49
2019-05-22T16:27:00.153Z,20.21
2019-05-22T16:29:29.441Z,20.18
2019-05-22T16:32:00.058Z,20.23
2019-05-22T16:34:35.493Z,20.23
2019-05-22T16:37:05.205Z,20.34
2019-05-22T16:39:34.545Z,20.28
2019-05-22T16:42:02.664Z,20.39
2019-05-22T16:44:34.331Z,20.44
2019-05-22T16:47:06.130Z,20.39
2019-05-22T16:49:49.328Z,20.34
2019-05-22T16:52:23.924Z,20.29
2019-05-22T16:54:53.659Z,20.44
2019-05-22T16:57:22.468Z,20.41
2019-05-22T16:59:50.392Z,20.37
2019-05-22T17:02:19.553Z,20.30
2019-05-22T17:04:52.054Z,20.32
2019-05-22T17:07:20.633Z,20.37
2019-05-22T17:09:50.702Z,20.09
2019-05-22T17:12:19.540Z,20.10
2019-05-22T17:14:51.854Z,20.21
2019-05-22T17:17:21.156Z,20.15
2019-05-22T17:19:52.998Z,20.23
2019-05-22T17:22:20.941Z,20.10
2019-05-22T17:24:51.143Z,20.09
2019-05-22T17:27:20.198Z,20.14
2019-05-22T17:29:50.124Z,20.15
2019-05-22T17:32:19.343Z,20.23
2019-05-22T17:34:51.543Z,19.98
2019-05-22T17:37:20.541Z,20.08
2019-05-22T17:39:51.031Z,20.12
2019-05-22T17:42:25.822Z,19.83
2019-05-22T17:44:54.714Z,19.68
2019-05-22T17:47:24.109Z,19.65
2019-05-22T17:49:52.957Z,19.57
2019-05-22T17:52:24.005Z,19.57
2019-05-22T17:54:52.329Z,19.59
2019-05-22T17:57:21.824Z,19.47
2019-05-22T17:59:50.603Z,19.40
2019-05-22T18:02:23.022Z,19.34
2019-05-22T18:04:50.915Z,19.29
2019-05-22T18:07:19.074Z,19.23
2019-05-22T18:09:46.729Z,19.22
2019-05-22T18:12:15.311Z,19.06
2019-05-22T18:14:43.273Z,19.07
2019-05-22T18:17:11.870Z,19.02
2019-05-22T18:19:39.913Z,18.77
2019-05-22T18:22:09.463Z,18.70
2019-05-22T18:24:39.805Z,18.73
2019-05-22T18:27:07.570Z,18.57
2019-05-22T18:29:34.988Z,18.64
2019-05-22T18:32:02.956Z,18.51
2019-05-22T18:34:30.800Z,18.46
2019-05-22T18:36:58.628Z,18.32
2019-05-22T18:39:26.873Z,18.25
2019-05-22T18:41:54.861Z,18.27
2019-05-22T18:44:22.543Z,18.21
2019-05-22T18:46:50.265Z,18.10
2019-05-22T18:49:17.805Z,18.13
2019-05-22T18:51:45.744Z,18.01
2019-05-22T18:54:13.094Z,17.89
2019-05-22T18:56:42.336Z,17.71
2019-05-22T18:59:11.929Z,17.57
2019-05-22T19:01:40.180Z,17.52
2019-05-22T19:04:08.190Z,17.49
2019-05-22T19:06:36.098Z,17.54
2019-05-22T19:09:10.197Z,17.42
2019-05-22T19:11:38.055Z,17.22
2019-05-22T19:14:06.841Z,17.06
2019-05-22T19:16:34.855Z,16.94
2019-05-22T19:19:03.006Z,16.88
2019-05-22T19:21:35.084Z,16.70
2019-05-22T19:24:02.987Z,16.46
2019-05-22T19:26:30.987Z,16.20
2019-05-22T19:29:03.754Z,16.26
2019-05-22T19:31:31.380Z,16.09
2019-05-22T19:34:00.485Z,15.93
2019-05-22T19:36:27.946Z,15.83
2019-05-22T19:38:56.059Z,15.60
2019-05-22T19:41:31.725Z,15.67
2019-05-22T19:43:59.066Z,15.67
2019-05-22T19:46:27.602Z,15.48
2019-05-22T19:49:09.269Z,15.13
2019-05-22T19:51:43.495Z,14.97
2019-05-22T19:54:11.540Z,15.05
2019-05-22T19:56:40.326Z,14.80
2019-05-22T19:59:10.775Z,14.60
2019-05-22T20:01:40.418Z,14.49
2019-05-22T20:04:09.465Z,14.50
2019-05-22T20:06:38.458Z,14.36
2019-05-22T20:09:11.435Z,14.40
2019-05-22T20:11:44.567Z,14.41
2019-05-22T20:14:15.452Z,14.45
2019-05-22T20:16:46.019Z,14.45
2019-05-22T20:19:13.639Z,14.37
2019-05-22T20:21:41.652Z,14.13
2019-05-22T20:24:09.634Z,14.07
2019-05-22T20:26:37.134Z,13.92
2019-05-22T20:29:06.705Z,13.86
2019-05-22T20:31:35.223Z,13.84
2019-05-22T20:34:03.830Z,13.76
2019-05-22T20:36:32.003Z,13.76
2019-05-22T20:39:05.957Z,13.95
2019-05-22T20:41:33.590Z,14.01
2019-05-22T20:44:02.881Z,13.69
2019-05-22T20:46:30.305Z,13.45
2019-05-22T20:49:00.044Z,13.35
2019-05-22T20:51:28.401Z,13.29
2019-05-22T20:53:56.774Z,13.03
2019-05-22T20:56:28.831Z,12.90
2019-05-22T20:59:00.616Z,13.02
2019-05-22T21:01:29.471Z,13.12
2019-05-22T21:04:00.959Z,13.19
2019-05-22T21:06:32.503Z,13.06
2019-05-22T21:09:01.154Z,13.10
2019-05-22T21:11:30.484Z,13.17
2019-05-22T21:13:58.407Z,13.24
2019-05-22T21:16:26.719Z,12.87
2019-05-22T21:18:57.452Z,12.95
2019-05-22T21:21:25.445Z,12.95
2019-05-22T21:24:09.327Z,13.04
2019-05-22T21:26:24.614Z,13.12
2019-05-22T21:28:52.783Z,13.11
2019-05-22T21:31:26.118Z,12.72
2019-05-22T21:33:55.258Z,12.40
2019-05-22T21:36:22.987Z,12.65
2019-05-22T21:38:52.289Z,12.56
2019-05-22T21:41:21.662Z,12.64
2019-05-22T21:43:50.711Z,12.50
2019-05-22T21:46:17.974Z,12.28
2019-05-22T21:48:47.468Z,12.38
2019-05-22T21:51:15.965Z,12.41
2019-05-22T21:53:43.630Z,12.17
2019-05-22T21:56:11.446Z,11.99
2019-05-22T21:58:38.943Z,11.94
2019-05-22T22:01:16.982Z,11.97
2019-05-22T22:03:55.825Z,11.76
2019-05-22T22:06:23.845Z,11.73
2019-05-22T22:08:52.089Z,11.54
2019-05-22T22:11:25.329Z,11.54
2019-05-22T22:13:56.635Z,11.54
2019-05-22T22:16:25.004Z,11.62
2019-05-22T22:18:55.290Z,11.62
2019-05-22T22:21:23.387Z,11.51
2019-05-22T22:23:52.504Z,11.35
2019-05-22T22:26:25.868Z,11.45
2019-05-22T22:28:50.793Z,11.42
2019-05-22T22:31:29.535Z,11.51
2019-05-22T22:34:12.656Z,11.53
2019-05-22T22:36:41.074Z,11.51
2019-05-22T22:39:11.552Z,11.46
2019-05-22T22:41:42.250Z,11.44
2019-05-22T22:44:11.750Z,11.40
2019-05-22T22:47:10.745Z,11.33
2019-05-22T22:49:40.561Z,11.17
2019-05-22T22:52:13.315Z,11.10
2019-05-22T22:54:42.464Z,11.08
2019-05-22T22:57:13.855Z,10.99
2019-05-22T22:59:44.208Z,10.89
2019-05-22T23:02:15.870Z,10.89
2019-05-22T23:04:45.111Z,10.74
2019-05-22T23:07:16.639Z,10.74
2019-05-22T23:09:44.015Z,10.66
2019-05-22T23:12:13.172Z,10.72
2019-05-22T23:14:47.847Z,10.65
2019-05-22T23:17:19.676Z,10.65
2019-05-22T23:19:46.375Z,10.75
2019-05-22T23:22:18.800Z,10.71
2019-05-22T23:24:48.734Z,10.81
2019-05-22T23:27:17.023Z,10.83
2019-05-22T23:29:45.443Z,10.83
2019-05-22T23:32:18.118Z,10.66
2019-05-22T23:34:48.315Z,10.63
2019-05-22T23:37:18.193Z,10.66
2019-05-22T23:39:46.772Z,10.63
2019-05-22T23:42:21.791Z,10.54
2019-05-22T23:44:53.832Z,10.54
2019-05-22T23:47:26.347Z,10.38
2019-05-22T23:49:55.525Z,10.37
2019-05-22T23:52:23.945Z,10.33
2019-05-22T23:54:53.073Z,10.37
2019-05-22T23:57:21.892Z,10.32
